createdAt,value
2018-11-05T00:00:41.187Z,10.20
2018-11-05T00:03:09.423Z,10.20
2018-11-05T00:05:37.670Z,10.20
2018-11-05T00:08:05.936Z,10.20
2018-11-05T00:10:34.098Z,10.20
2018-11-05T00:13:02.294Z,10.20
2018-11-05T00:15:30.490Z,10.30
2018-11-05T00:17:59.450Z,10.20
2018-11-05T00:20:28.050Z,10.20
2018-11-05T00:22:56.514Z,10.20
2018-11-05T00:25:24.705Z,10.20
2018-11-05T00:27:52.910Z,10.20
2018-11-05T00:30:21.649Z,10.30
2018-11-05T00:32:49.822Z,10.30
2018-11-05T00:35:18.658Z,10.30
2018-11-05T00:37:46.842Z,10.30
2018-11-05T00:40:16.091Z,10.30
2018-11-05T00:42:44.938Z,10.30
2018-11-05T00:45:13.742Z,10.30
2018-11-05T00:47:42.310Z,10.40
2018-11-05T00:50:12.198Z,10.40
2018-11-05T00:52:40.410Z,10.30
2018-11-05T00:55:09.738Z,10.40
2018-11-05T00:57:37.954Z,10.30
2018-11-05T01:00:09.870Z,10.30
2018-11-05T01:02:38.306Z,10.30
2018-11-05T01:05:07.554Z,10.40
2018-11-05T01:07:35.795Z,10.40
2018-11-05T01:10:04.154Z,10.30
2018-11-05T01:12:32.382Z,10.30
2018-11-05T01:15:00.613Z,10.30
2018-11-05T01:17:28.782Z,10.30
2018-11-05T01:20:00.774Z,10.30
2018-11-05T01:22:29.726Z,10.30
2018-11-05T01:24:58.222Z,10.30
2018-11-05T01:27:26.458Z,10.30
2018-11-05T01:29:54.618Z,10.30
2018-11-05T01:32:22.902Z,10.20
2018-11-05T01:34:51.734Z,10.20
2018-11-05T01:37:19.986Z,10.20
2018-11-05T01:39:48.534Z,10.20
2018-11-05T01:42:16.746Z,10.20
2018-11-05T01:44:45.358Z,10.20
2018-11-05T01:47:13.551Z,10.20
2018-11-05T01:49:41.746Z,10.20
2018-11-05T01:52:09.960Z,10.20
2018-11-05T01:54:38.114Z,10.20
2018-11-05T01:57:06.336Z,10.20
2018-11-05T01:59:35.277Z,10.20
2018-11-05T02:04:55.682Z,10.20
2018-11-05T02:07:24.175Z,10.20
2018-11-05T02:09:52.790Z,10.20
2018-11-05T02:12:23.479Z,10.20
2018-11-05T02:14:51.702Z,10.20
2018-11-05T02:17:19.919Z,10.20
2018-11-05T02:19:49.530Z,10.20
2018-11-05T02:22:17.700Z,10.20
2018-11-05T02:24:45.865Z,10.20
2018-11-05T02:27:14.155Z,10.20
2018-11-05T02:29:42.277Z,10.20
2018-11-05T02:32:10.490Z,10.20
2018-11-05T02:34:38.712Z,10.20
2018-11-05T02:37:06.926Z,10.20
2018-11-05T02:39:35.142Z,10.20
2018-11-05T02:42:03.621Z,10.20
2018-11-05T02:44:31.815Z,10.20
2018-11-05T02:47:00.230Z,10.20
2018-11-05T02:49:28.423Z,10.20
2018-11-05T02:51:56.630Z,10.20
2018-11-05T02:54:24.887Z,10.20
2018-11-05T02:56:53.103Z,10.20
2018-11-05T02:59:21.655Z,10.20
2018-11-05T03:01:49.835Z,10.20
2018-11-05T03:04:18.025Z,10.20
2018-11-05T03:06:46.379Z,10.20
2018-11-05T03:09:14.636Z,10.20
2018-11-05T03:11:43.242Z,10.20
2018-11-05T03:14:11.472Z,10.20
2018-11-05T03:16:39.690Z,10.20
2018-11-05T03:19:08.087Z,10.20
2018-11-05T03:21:36.331Z,10.20
2018-11-05T03:24:04.787Z,10.20
2018-11-05T03:26:33.131Z,10.20
2018-11-05T03:29:03.267Z,10.20
2018-11-05T03:31:31.588Z,10.20
2018-11-05T03:33:59.935Z,10.20
2018-11-05T03:36:28.110Z,10.20
2018-11-05T03:38:56.360Z,10.20
2018-11-05T03:41:24.547Z,10.20
2018-11-05T03:43:52.745Z,10.20
2018-11-05T03:46:20.946Z,10.20
2018-11-05T03:48:49.190Z,10.20
2018-11-05T03:51:18.103Z,10.20
2018-11-05T03:53:47.738Z,10.20
2018-11-05T03:56:16.062Z,10.30
2018-11-05T03:58:44.134Z,10.30
2018-11-05T04:01:12.328Z,10.20
2018-11-05T04:03:40.551Z,10.20
2018-11-05T04:06:08.964Z,10.30
2018-11-05T04:08:37.162Z,10.30
2018-11-05T04:11:05.462Z,10.30
2018-11-05T04:13:33.853Z,10.30
2018-11-05T04:16:02.948Z,10.30
2018-11-05T04:18:31.303Z,10.30
2018-11-05T04:20:59.511Z,10.30
2018-11-05T04:23:27.736Z,10.30
2018-11-05T04:25:55.922Z,10.30
2018-11-05T04:28:24.210Z,10.30
2018-11-05T04:30:52.434Z,10.30
2018-11-05T04:33:20.656Z,10.30
2018-11-05T04:35:48.847Z,10.30
2018-11-05T04:38:17.090Z,10.30
2018-11-05T04:40:45.671Z,10.30
2018-11-05T04:43:13.918Z,10.30
2018-11-05T04:45:42.104Z,10.30
2018-11-05T04:48:10.297Z,10.30
2018-11-05T04:50:38.504Z,10.30
2018-11-05T04:53:06.773Z,10.30
2018-11-05T04:55:34.992Z,10.30
2018-11-05T04:58:03.243Z,10.30
2018-11-05T05:00:31.573Z,10.30
2018-11-05T05:02:59.910Z,10.30
2018-11-05T05:05:28.134Z,10.30
2018-11-05T05:07:56.379Z,10.30
2018-11-05T05:10:24.623Z,10.40
2018-11-05T05:12:52.832Z,10.40
2018-11-05T05:15:21.051Z,10.40
2018-11-05T05:17:50.862Z,10.40
2018-11-05T05:20:20.175Z,10.40
2018-11-05T05:22:55.239Z,10.40
2018-11-05T05:25:23.242Z,10.40
2018-11-05T05:27:51.434Z,10.40
2018-11-05T05:30:19.950Z,10.40
2018-11-05T05:32:48.928Z,10.40
2018-11-05T05:35:18.039Z,10.30
2018-11-05T05:37:46.354Z,10.30
2018-11-05T05:40:14.534Z,10.30
2018-11-05T05:42:43.621Z,10.40
2018-11-05T05:45:13.070Z,10.40
2018-11-05T05:47:41.913Z,10.30
2018-11-05T05:50:15.117Z,10.30
2018-11-05T05:52:44.463Z,10.40
2018-11-05T05:55:12.678Z,10.30
2018-11-05T05:57:40.980Z,10.30
2018-11-05T06:00:11.055Z,10.40
2018-11-05T06:02:39.349Z,10.40
2018-11-05T06:05:08.457Z,10.40
2018-11-05T06:07:36.848Z,10.40
2018-11-05T06:10:05.223Z,10.40
2018-11-05T06:12:33.405Z,10.40
2018-11-05T06:15:03.160Z,10.40
2018-11-05T06:17:31.679Z,10.40
2018-11-05T06:20:00.406Z,10.40
2018-11-05T06:22:28.619Z,10.50
2018-11-05T06:24:56.817Z,10.40
2018-11-05T06:27:25.277Z,10.40
2018-11-05T06:29:53.538Z,10.50
2018-11-05T06:32:21.735Z,10.50
2018-11-05T06:34:49.938Z,10.50
2018-11-05T06:37:18.326Z,10.50
2018-11-05T06:39:47.488Z,10.50
2018-11-05T06:42:15.680Z,10.50
2018-11-05T06:44:43.926Z,10.50
2018-11-05T06:47:12.119Z,10.50
2018-11-05T06:49:40.310Z,10.50
2018-11-05T06:52:08.558Z,10.50
2018-11-05T06:54:37.248Z,10.60
2018-11-05T06:57:06.055Z,10.60
2018-11-05T06:59:34.275Z,10.60
2018-11-05T07:02:02.439Z,10.60
2018-11-05T07:04:31.109Z,10.60
2018-11-05T07:06:59.576Z,10.60
2018-11-05T07:09:27.832Z,10.60
2018-11-05T07:11:56.027Z,10.60
2018-11-05T07:14:25.715Z,10.60
2018-11-05T07:16:54.384Z,10.60
2018-11-05T07:19:23.727Z,10.60
2018-11-05T07:21:51.802Z,10.60
2018-11-05T07:24:20.046Z,10.60
2018-11-05T07:26:48.254Z,10.70
2018-11-05T07:29:16.619Z,10.80
2018-11-05T07:31:44.945Z,10.90
2018-11-05T07:34:13.301Z,11.00
2018-11-05T07:36:43.338Z,11.10
2018-11-05T07:39:12.406Z,11.20
2018-11-05T07:41:40.871Z,11.30
2018-11-05T07:44:09.427Z,11.40
2018-11-05T07:46:37.738Z,11.40
2018-11-05T07:49:05.967Z,11.50
2018-11-05T07:51:35.146Z,11.50
2018-11-05T07:54:03.426Z,11.50
2018-11-05T07:56:31.823Z,11.70
2018-11-05T07:58:59.986Z,11.80
2018-11-05T08:01:28.162Z,11.80
2018-11-05T08:03:56.325Z,11.90
2018-11-05T08:06:24.710Z,11.90
2018-11-05T08:08:52.894Z,12.00
2018-11-05T08:11:21.094Z,12.10
2018-11-05T08:13:49.254Z,12.20
2018-11-05T08:16:17.459Z,12.20
2018-11-05T08:18:45.622Z,12.10
2018-11-05T08:21:13.844Z,12.20
2018-11-05T08:23:42.030Z,12.20
2018-11-05T08:26:10.207Z,12.30
2018-11-05T08:28:39.150Z,12.30
2018-11-05T08:31:07.374Z,12.40
2018-11-05T08:33:35.590Z,12.40
2018-11-05T08:36:04.130Z,12.40
2018-11-05T08:38:32.378Z,12.40
2018-11-05T08:41:02.131Z,12.40
2018-11-05T08:43:30.791Z,12.30
2018-11-05T08:45:59.023Z,12.30
2018-11-05T08:48:27.253Z,12.30
2018-11-05T08:50:55.640Z,12.40
2018-11-05T08:53:23.734Z,12.50
2018-11-05T08:55:51.942Z,12.60
2018-11-05T08:58:20.156Z,12.80
2018-11-05T09:00:54.587Z,12.80
2018-11-05T09:03:22.738Z,12.80
2018-11-05T09:05:50.946Z,12.90
2018-11-05T09:08:21.081Z,13.20
2018-11-05T09:10:50.483Z,13.20
2018-11-05T09:13:18.394Z,13.00
2018-11-05T09:15:46.618Z,12.90
2018-11-05T09:18:14.846Z,12.70
2018-11-05T09:20:43.104Z,12.60
2018-11-05T09:23:11.290Z,12.60
2018-11-05T09:25:39.506Z,12.60
2018-11-05T09:28:07.895Z,12.60
2018-11-05T09:30:35.913Z,12.60
2018-11-05T09:33:04.309Z,12.50
2018-11-05T09:35:32.486Z,12.70
2018-11-05T09:38:00.896Z,12.70
2018-11-05T09:40:29.120Z,12.80
2018-11-05T09:42:58.428Z,12.90
2018-11-05T09:45:27.810Z,13.00
2018-11-05T09:47:56.055Z,13.30
2018-11-05T09:50:24.257Z,13.60
2018-11-05T09:52:52.379Z,13.70
2018-11-05T09:55:20.763Z,13.90
2018-11-05T09:57:49.194Z,13.70
2018-11-05T10:00:18.969Z,13.60
2018-11-05T10:02:52.742Z,13.50
2018-11-05T10:05:20.879Z,13.50
2018-11-05T10:07:48.979Z,13.40
2018-11-05T10:10:17.813Z,13.40
2018-11-05T10:12:46.146Z,13.40
2018-11-05T10:15:16.069Z,13.20
2018-11-05T10:17:44.297Z,13.10
2018-11-05T10:20:14.742Z,13.10
2018-11-05T10:22:43.319Z,13.30
2018-11-05T10:25:12.038Z,13.60
2018-11-05T10:27:40.162Z,13.70
2018-11-05T10:30:12.245Z,14.00
2018-11-05T10:32:40.805Z,14.40
2018-11-05T10:35:09.950Z,14.60
2018-11-05T10:37:38.299Z,15.20
2018-11-05T10:40:09.203Z,15.60
2018-11-05T10:42:37.386Z,15.90
2018-11-05T10:45:11.666Z,16.50
2018-11-05T10:47:39.890Z,16.40
2018-11-05T10:50:09.026Z,15.70
2018-11-05T10:52:37.735Z,15.40
2018-11-05T10:55:06.220Z,15.30
2018-11-05T10:57:34.569Z,15.50
2018-11-05T11:00:02.806Z,16.00
2018-11-05T11:02:37.367Z,16.10
2018-11-05T11:05:07.654Z,16.10
2018-11-05T11:07:36.247Z,16.40
2018-11-05T11:10:05.262Z,17.20
2018-11-05T11:12:33.474Z,18.10
2018-11-05T11:15:02.297Z,18.40
2018-11-05T11:17:31.150Z,18.90
2018-11-05T11:19:59.318Z,19.10
2018-11-05T11:22:27.503Z,19.20
2018-11-05T11:24:55.906Z,18.50
2018-11-05T11:27:24.102Z,18.00
2018-11-05T11:29:52.343Z,18.10
2018-11-05T11:32:20.902Z,18.20
2018-11-05T11:34:49.190Z,17.90
2018-11-05T11:37:17.392Z,17.60
2018-11-05T11:39:45.893Z,16.90
2018-11-05T11:42:14.141Z,16.40
2018-11-05T11:44:42.417Z,16.10
2018-11-05T11:47:10.745Z,16.10
2018-11-05T11:49:38.934Z,16.10
2018-11-05T11:52:07.330Z,16.10
2018-11-05T11:54:35.558Z,16.00
2018-11-05T11:57:03.824Z,16.20
2018-11-05T11:59:32.242Z,16.30
2018-11-05T12:02:07.035Z,16.40
2018-11-05T12:04:35.224Z,16.70
2018-11-05T12:07:03.410Z,16.70
2018-11-05T12:09:31.970Z,16.60
2018-11-05T12:12:00.162Z,16.70
2018-11-05T12:14:28.441Z,16.90
2018-11-05T12:16:56.575Z,17.00
2018-11-05T12:19:25.021Z,17.00
2018-11-05T12:21:53.227Z,16.90
2018-11-05T12:24:21.467Z,16.70
2018-11-05T12:26:49.815Z,16.50
2018-11-05T12:29:18.022Z,16.90
2018-11-05T12:31:46.643Z,17.40
2018-11-05T12:34:16.558Z,17.70
2018-11-05T12:36:44.911Z,17.70
2018-11-05T12:39:13.195Z,17.40
2018-11-05T12:41:41.660Z,17.20
2018-11-05T12:44:10.741Z,16.80
2018-11-05T12:46:40.350Z,16.50
2018-11-05T12:49:08.748Z,16.30
2018-11-05T12:51:37.022Z,16.10
2018-11-05T12:54:05.279Z,16.10
2018-11-05T12:56:33.679Z,16.10
2018-11-05T12:59:01.882Z,16.10
2018-11-05T13:01:30.806Z,16.10
2018-11-05T13:04:00.028Z,16.40
2018-11-05T13:06:28.176Z,17.00
2018-11-05T13:08:56.347Z,17.90
2018-11-05T13:11:24.531Z,19.00
2018-11-05T13:13:52.770Z,19.90
2018-11-05T13:16:21.134Z,21.20
2018-11-05T13:18:49.398Z,22.20
2018-11-05T13:21:17.870Z,22.40
2018-11-05T13:23:46.822Z,22.20
2018-11-05T13:26:15.862Z,21.40
2018-11-05T13:28:44.092Z,20.60
2018-11-05T13:31:12.680Z,19.90
2018-11-05T13:33:41.763Z,19.50
2018-11-05T13:36:09.970Z,19.10
2018-11-05T13:38:38.502Z,18.40
2018-11-05T13:41:06.390Z,17.80
2018-11-05T13:43:34.590Z,17.60
2018-11-05T13:46:03.162Z,17.20
2018-11-05T13:48:31.654Z,16.90
2018-11-05T13:50:59.286Z,16.60
2018-11-05T13:53:27.531Z,16.20
2018-11-05T13:55:55.722Z,15.70
2018-11-05T13:58:24.192Z,15.30
2018-11-05T14:00:52.354Z,15.00
2018-11-05T14:03:20.540Z,14.80
2018-11-05T14:05:48.953Z,14.70
2018-11-05T14:08:17.093Z,14.70
2018-11-05T14:10:45.496Z,14.80
2018-11-05T14:13:13.626Z,14.90
2018-11-05T14:15:41.859Z,15.00
2018-11-05T14:18:10.064Z,15.10
2018-11-05T14:20:38.225Z,15.20
2018-11-05T14:23:06.982Z,15.20
2018-11-05T14:25:36.054Z,15.10
2018-11-05T14:28:04.754Z,15.10
2018-11-05T14:30:32.531Z,15.00
2018-11-05T14:33:00.911Z,14.90
2018-11-05T14:35:29.526Z,14.80
2018-11-05T14:37:57.808Z,14.80
2018-11-05T14:40:25.927Z,14.80
2018-11-05T14:42:54.249Z,14.80
2018-11-05T14:45:22.334Z,14.90
2018-11-05T14:47:50.831Z,14.90
2018-11-05T14:50:20.392Z,14.90
2018-11-05T14:52:48.658Z,14.90
2018-11-05T14:55:18.562Z,14.90
2018-11-05T14:57:47.802Z,15.00
2018-11-05T15:00:18.117Z,15.10
2018-11-05T15:02:47.685Z,15.20
2018-11-05T15:05:16.346Z,15.00
2018-11-05T15:07:45.650Z,14.60
2018-11-05T15:10:16.214Z,14.20
2018-11-05T15:12:44.618Z,14.10
2018-11-05T15:15:13.567Z,13.90
2018-11-05T15:17:42.670Z,13.90
2018-11-05T15:20:13.188Z,13.90
2018-11-05T15:22:41.234Z,13.90
2018-11-05T15:25:09.638Z,13.80
2018-11-05T15:27:38.551Z,13.80
2018-11-05T15:30:10.003Z,13.60
2018-11-05T15:32:40.402Z,13.40
2018-11-05T15:35:08.779Z,13.10
2018-11-05T15:37:37.452Z,12.90
2018-11-05T15:40:06.178Z,12.70
2018-11-05T15:42:34.770Z,12.50
2018-11-05T15:45:02.924Z,12.30
2018-11-05T15:47:31.115Z,12.10
2018-11-05T15:49:59.952Z,12.00
2018-11-05T15:52:28.558Z,11.80
2018-11-05T15:54:56.344Z,11.70
2018-11-05T15:57:24.519Z,11.50
2018-11-05T15:59:52.685Z,11.30
2018-11-05T16:02:21.182Z,11.10
2018-11-05T16:04:49.414Z,10.90
2018-11-05T16:07:17.642Z,10.70
2018-11-05T16:09:46.006Z,10.60
2018-11-05T16:12:14.238Z,10.50
2018-11-05T16:14:42.501Z,10.40
2018-11-05T16:17:10.682Z,10.30
2018-11-05T16:19:38.907Z,10.10
2018-11-05T16:22:07.110Z,10.00
2018-11-05T16:24:35.360Z,9.90
2018-11-05T16:27:03.519Z,9.80
2018-11-05T16:29:31.776Z,9.60
2018-11-05T16:32:00.051Z,9.50
2018-11-05T16:34:28.582Z,9.50
2018-11-05T16:36:57.442Z,9.40
2018-11-05T16:39:25.777Z,9.30
2018-11-05T16:41:54.299Z,9.40
2018-11-05T16:44:22.394Z,9.40
2018-11-05T16:46:50.541Z,9.40
2018-11-05T16:49:18.734Z,9.40
2018-11-05T16:51:46.877Z,9.40
2018-11-05T16:54:15.083Z,9.40
2018-11-05T16:56:43.346Z,9.50
2018-11-05T16:59:11.626Z,9.50
2018-11-05T17:01:40.111Z,9.50
2018-11-05T17:04:07.998Z,9.50
2018-11-05T17:06:36.185Z,9.50
2018-11-05T17:09:06.030Z,9.50
2018-11-05T17:11:34.277Z,9.60
2018-11-05T17:14:02.513Z,9.60
2018-11-05T17:16:30.714Z,9.60
2018-11-05T17:18:58.894Z,9.50
2018-11-05T17:21:27.348Z,9.50
2018-11-05T17:23:55.554Z,9.50
2018-11-05T17:26:23.884Z,9.50
2018-11-05T17:28:54.924Z,9.50
2018-11-05T17:31:23.379Z,9.40
2018-11-05T17:33:52.129Z,9.30
2018-11-05T17:36:20.230Z,9.30
2018-11-05T17:38:48.612Z,9.20
2018-11-05T17:41:16.851Z,9.10
2018-11-05T17:43:45.038Z,9.00
2018-11-05T17:46:13.234Z,8.90
2018-11-05T17:48:41.418Z,8.80
2018-11-05T17:51:10.143Z,8.70
2018-11-05T17:53:38.634Z,8.60
2018-11-05T17:56:06.881Z,8.40
2018-11-05T17:58:35.078Z,8.30
2018-11-05T18:01:03.287Z,8.20
2018-11-05T18:03:32.381Z,8.00
2018-11-05T18:06:01.435Z,7.90
2018-11-05T18:08:36.072Z,7.80
2018-11-05T18:11:04.247Z,7.80
2018-11-05T18:13:32.399Z,7.70
2018-11-05T18:16:00.637Z,7.70
2018-11-05T18:18:28.830Z,7.50
2018-11-05T18:20:57.058Z,7.40
2018-11-05T18:23:25.291Z,7.30
2018-11-05T18:25:53.598Z,7.20
2018-11-05T18:28:21.770Z,7.10
2018-11-05T18:30:49.933Z,7.00
2018-11-05T18:33:18.140Z,7.00
2018-11-05T18:35:46.556Z,6.90
2018-11-05T18:38:14.932Z,6.80
2018-11-05T18:40:43.019Z,6.70
2018-11-05T18:43:11.183Z,6.80
2018-11-05T18:45:39.353Z,6.90
2018-11-05T18:48:07.503Z,6.90
2018-11-05T18:50:35.726Z,6.90
2018-11-05T18:53:03.889Z,7.00
2018-11-05T18:55:32.074Z,6.90
2018-11-05T18:58:00.310Z,6.90
2018-11-05T19:00:28.629Z,6.80
2018-11-05T19:02:57.824Z,6.80
2018-11-05T19:05:27.327Z,6.70
2018-11-05T19:07:55.545Z,6.60
2018-11-05T19:10:23.748Z,6.50
2018-11-05T19:12:52.655Z,6.40
2018-11-05T19:15:20.950Z,6.30
2018-11-05T19:17:49.733Z,6.20
2018-11-05T19:20:18.130Z,6.10
2018-11-05T19:22:47.332Z,6.00
2018-11-05T19:25:16.166Z,6.00
2018-11-05T19:27:44.489Z,5.90
2018-11-05T19:30:16.130Z,5.80
2018-11-05T19:32:44.816Z,5.80
2018-11-05T19:35:13.217Z,5.80
2018-11-05T19:37:41.935Z,5.80
2018-11-05T19:40:12.262Z,5.80
2018-11-05T19:42:41.639Z,5.80
2018-11-05T19:45:11.226Z,5.80
2018-11-05T19:47:39.686Z,5.80
2018-11-05T19:50:10.310Z,5.80
2018-11-05T19:52:39.334Z,5.70
2018-11-05T19:55:08.386Z,5.70
2018-11-05T19:57:38.010Z,5.60
2018-11-05T20:00:14.934Z,5.50
2018-11-05T20:02:53.043Z,5.60
2018-11-05T20:05:21.295Z,5.60
2018-11-05T20:07:51.122Z,5.50
2018-11-05T20:10:19.573Z,5.50
2018-11-05T20:12:47.806Z,5.40
2018-11-05T20:15:17.228Z,5.40
2018-11-05T20:17:46.526Z,5.40
2018-11-05T20:20:16.134Z,5.40
2018-11-05T20:22:44.475Z,5.40
2018-11-05T20:25:12.904Z,5.40
2018-11-05T20:27:41.547Z,5.30
2018-11-05T20:30:12.030Z,5.30
2018-11-05T20:32:42.304Z,5.10
2018-11-05T20:35:10.538Z,5.00
2018-11-05T20:37:38.986Z,5.00
2018-11-05T20:40:09.093Z,4.90
2018-11-05T20:42:38.038Z,4.80
2018-11-05T20:45:06.240Z,4.80
2018-11-05T20:47:35.283Z,4.80
2018-11-05T20:50:03.530Z,4.80
2018-11-05T20:52:33.954Z,4.80
2018-11-05T20:55:02.966Z,4.80
2018-11-05T20:57:31.514Z,4.70
2018-11-05T20:59:59.897Z,4.70
2018-11-05T21:02:28.101Z,4.70
2018-11-05T21:04:56.297Z,4.70
2018-11-05T21:07:24.510Z,4.70
2018-11-05T21:09:52.683Z,4.60
2018-11-05T21:12:20.892Z,4.60
2018-11-05T21:14:49.205Z,4.60
2018-11-05T21:17:17.434Z,4.60
2018-11-05T21:19:45.634Z,4.50
2018-11-05T21:22:14.065Z,4.50
2018-11-05T21:24:42.206Z,4.40
2018-11-05T21:27:10.414Z,4.30
2018-11-05T21:29:38.554Z,4.20
2018-11-05T21:32:06.782Z,4.20
2018-11-05T21:34:34.931Z,4.20
2018-11-05T21:37:03.150Z,4.20
2018-11-05T21:39:31.493Z,4.40
2018-11-05T21:41:59.696Z,4.50
2018-11-05T21:44:27.904Z,4.50
2018-11-05T21:46:56.398Z,4.50
2018-11-05T21:49:24.936Z,4.50
2018-11-05T21:51:53.351Z,4.40
2018-11-05T21:54:21.579Z,4.40
2018-11-05T21:56:49.726Z,4.40
2018-11-05T21:59:17.889Z,4.30
2018-11-05T22:01:46.246Z,4.20
2018-11-05T22:04:14.514Z,4.10
2018-11-05T22:06:42.700Z,4.00
2018-11-05T22:09:10.915Z,3.90
2018-11-05T22:11:39.121Z,3.80
2018-11-05T22:14:08.084Z,3.80
2018-11-05T22:16:36.306Z,3.80
2018-11-05T22:19:35.947Z,3.80
2018-11-05T22:22:04.558Z,3.90
2018-11-05T22:24:32.936Z,3.90
2018-11-05T22:27:01.215Z,3.80
2018-11-05T22:29:29.485Z,3.70
2018-11-05T22:31:57.883Z,3.70
2018-11-05T22:34:26.486Z,3.70
2018-11-05T22:36:54.678Z,3.70
2018-11-05T22:39:22.878Z,3.60
2018-11-05T22:41:51.723Z,3.60
2018-11-05T22:44:20.457Z,3.70
2018-11-05T22:46:48.855Z,3.80
2018-11-05T22:49:17.042Z,3.90
2018-11-05T22:51:45.242Z,4.00
2018-11-05T22:54:13.438Z,4.20
2018-11-05T22:56:41.652Z,4.30
2018-11-05T22:59:09.846Z,4.50
2018-11-05T23:01:43.586Z,4.60
2018-11-05T23:04:11.987Z,4.80
2018-11-05T23:06:40.202Z,4.90
2018-11-05T23:09:08.442Z,5.00
2018-11-05T23:11:36.878Z,5.10
2018-11-05T23:14:05.461Z,5.20
2018-11-05T23:16:40.382Z,5.20
2018-11-05T23:19:15.622Z,5.30
2018-11-05T23:21:44.434Z,5.30
2018-11-05T23:24:12.627Z,5.30
2018-11-05T23:26:40.840Z,5.40
2018-11-05T23:29:09.333Z,5.50
2018-11-05T23:31:37.536Z,5.50
2018-11-05T23:34:06.711Z,5.60
2018-11-05T23:36:34.910Z,5.60
2018-11-05T23:39:04.372Z,5.60
2018-11-05T23:41:32.593Z,5.50
2018-11-05T23:44:01.074Z,5.50
2018-11-05T23:46:29.287Z,5.50
2018-11-05T23:48:57.438Z,5.40
2018-11-05T23:51:25.760Z,5.50
2018-11-05T23:53:53.934Z,5.50
2018-11-05T23:56:22.127Z,5.50
2018-11-05T23:58:50.358Z,5.50
